Glenwood, Colorado
Current Conditions -  °F | °C
As of 1:59 PM on Friday 31 Oct 2014 (Local Time) from K5SM Reporting Station
Clear Clear  
Wind Chill: 50°   Ceiling: Unl
Heat Index: 50°   Visibility: 10mi
Dew Point: 21°   Wind: 0mph
Humidity: 32%   Direction: NA
Pressure: 30.39"   Gusts: NA
Location:  39.4624°N, 107.257°W
Report Text: K5SM 311959Z AUTO 00000KT 10SM CLR 10/M06 A3039 RMK AO2
Loading
Personal Weather Stations






























Interactive Weather Map
Tropical Storm Tracking
New forecast layout! Learn more

10-Day Weather Forecast

Advertisements
Track Severe Weather on mobile